sensor_id;sensor_type;location;lat;lon;timestamp;P1;durP1;ratioP1;P2;durP2;ratioP2
21727;SDS011;11026;50.560;17.852;2023-02-01T00:01:07;2.90;;;2.28;;
21727;SDS011;11026;50.560;17.852;2023-02-01T00:03:36;3.33;;;2.25;;
21727;SDS011;11026;50.560;17.852;2023-02-01T00:06:03;7.43;;;3.65;;
21727;SDS011;11026;50.560;17.852;2023-02-01T00:08:31;4.75;;;2.20;;
21727;SDS011;11026;50.560;17.852;2023-02-01T00:11:11;3.17;;;2.03;;
21727;SDS011;11026;50.560;17.852;2023-02-01T00:13:40;2.97;;;1.85;;
21727;SDS011;11026;50.560;17.852;2023-02-01T00:16:10;5.97;;;3.05;;
21727;SDS011;11026;50.560;17.852;2023-02-01T00:18:47;3.60;;;2.70;;
21727;SDS011;11026;50.560;17.852;2023-02-01T00:21:17;4.25;;;1.70;;
21727;SDS011;11026;50.560;17.852;2023-02-01T00:23:46;2.20;;;1.60;;
21727;SDS011;11026;50.560;17.852;2023-02-01T00:26:18;2.15;;;1.40;;
21727;SDS011;11026;50.560;17.852;2023-02-01T00:28:49;2.15;;;1.50;;
21727;SDS011;11026;50.560;17.852;2023-02-01T00:31:17;1.38;;;1.27;;
21727;SDS011;11026;50.560;17.852;2023-02-01T00:33:46;2.35;;;1.30;;
21727;SDS011;11026;50.560;17.852;2023-02-01T00:36:14;1.17;;;0.80;;
21727;SDS011;11026;50.560;17.852;2023-02-01T00:38:41;3.40;;;0.73;;
21727;SDS011;11026;50.560;17.852;2023-02-01T00:43:41;1.13;;;0.55;;
21727;SDS011;11026;50.560;17.852;2023-02-01T00:46:09;1.20;;;0.75;;
21727;SDS011;11026;50.560;17.852;2023-02-01T00:48:39;1.52;;;0.60;;
21727;SDS011;11026;50.560;17.852;2023-02-01T00:51:10;1.00;;;0.60;;
21727;SDS011;11026;50.560;17.852;2023-02-01T00:53:42;1.65;;;0.47;;
21727;SDS011;11026;50.560;17.852;2023-02-01T00:56:10;0.90;;;0.60;;
21727;SDS011;11026;50.560;17.852;2023-02-01T00:58:38;2.05;;;0.73;;
21727;SDS011;11026;50.560;17.852;2023-02-01T01:01:08;1.05;;;0.70;;
21727;SDS011;11026;50.560;17.852;2023-02-01T01:03:45;0.55;;;0.50;;
21727;SDS011;11026;50.560;17.852;2023-02-01T01:06:15;0.73;;;0.60;;
21727;SDS011;11026;50.560;17.852;2023-02-01T01:08:44;0.90;;;0.47;;
21727;SDS011;11026;50.560;17.852;2023-02-01T01:11:14;1.70;;;0.60;;
21727;SDS011;11026;50.560;17.852;2023-02-01T01:13:43;2.00;;;0.60;;
21727;SDS011;11026;50.560;17.852;2023-02-01T01:16:24;2.38;;;0.82;;
21727;SDS011;11026;50.560;17.852;2023-02-01T01:18:54;1.25;;;0.70;;
21727;SDS011;11026;50.560;17.852;2023-02-01T01:21:22;6.50;;;1.30;;
21727;SDS011;11026;50.560;17.852;2023-02-01T01:23:50;3.60;;;1.13;;
21727;SDS011;11026;50.560;17.852;2023-02-01T01:26:20;2.78;;;0.85;;
21727;SDS011;11026;50.560;17.852;2023-02-01T01:28:50;3.95;;;1.00;;
21727;SDS011;11026;50.560;17.852;2023-02-01T01:31:20;2.40;;;0.75;;
21727;SDS011;11026;50.560;17.852;2023-02-01T01:33:56;2.55;;;0.68;;
21727;SDS011;11026;50.560;17.852;2023-02-01T01:36:26;0.70;;;0.70;;
21727;SDS011;11026;50.560;17.852;2023-02-01T01:38:56;2.33;;;0.70;;
21727;SDS011;11026;50.560;17.852;2023-02-01T01:41:25;3.05;;;0.90;;
21727;SDS011;11026;50.560;17.852;2023-02-01T01:44:00;3.10;;;0.90;;
21727;SDS011;11026;50.560;17.852;2023-02-01T01:51:55;2.33;;;0.70;;
21727;SDS011;11026;50.560;17.852;2023-02-01T01:56:55;2.00;;;0.93;;
21727;SDS011;11026;50.560;17.852;2023-02-01T01:59:26;2.10;;;1.10;;
21727;SDS011;11026;50.560;17.852;2023-02-01T02:01:54;2.05;;;1.02;;
21727;SDS011;11026;50.560;17.852;2023-02-01T02:04:23;1.98;;;0.90;;
21727;SDS011;11026;50.560;17.852;2023-02-01T02:06:54;2.72;;;1.30;;
21727;SDS011;11026;50.560;17.852;2023-02-01T02:09:26;3.40;;;1.30;;
21727;SDS011;11026;50.560;17.852;2023-02-01T02:11:53;2.95;;;1.55;;
21727;SDS011;11026;50.560;17.852;2023-02-01T02:14:21;2.55;;;1.23;;
21727;SDS011;11026;50.560;17.852;2023-02-01T02:20:11;3.90;;;1.38;;
21727;SDS011;11026;50.560;17.852;2023-02-01T02:34:36;4.38;;;1.73;;
21727;SDS011;11026;50.560;17.852;2023-02-01T02:37:15;2.72;;;1.80;;
21727;SDS011;11026;50.560;17.852;2023-02-01T02:42:48;7.43;;;2.60;;
21727;SDS011;11026;50.560;17.852;2023-02-01T02:45:55;2.75;;;2.10;;
21727;SDS011;11026;50.560;17.852;2023-02-01T02:48:53;18.35;;;6.93;;
21727;SDS011;11026;50.560;17.852;2023-02-01T02:51:46;7.00;;;2.65;;
21727;SDS011;11026;50.560;17.852;2023-02-01T02:54:40;3.45;;;1.80;;
21727;SDS011;11026;50.560;17.852;2023-02-01T02:57:28;6.80;;;2.00;;
21727;SDS011;11026;50.560;17.852;2023-02-01T03:00:16;4.97;;;2.55;;
21727;SDS011;11026;50.560;17.852;2023-02-01T03:03:04;7.07;;;3.35;;
21727;SDS011;11026;50.560;17.852;2023-02-01T03:05:51;11.17;;;3.90;;
21727;SDS011;11026;50.560;17.852;2023-02-01T03:18:53;7.25;;;2.67;;
21727;SDS011;11026;50.560;17.852;2023-02-01T03:21:38;5.57;;;2.50;;
21727;SDS011;11026;50.560;17.852;2023-02-01T03:27:05;7.30;;;3.05;;
21727;SDS011;11026;50.560;17.852;2023-02-01T03:32:53;8.82;;;3.60;;
21727;SDS011;11026;50.560;17.852;2023-02-01T03:43:58;8.90;;;2.28;;
21727;SDS011;11026;50.560;17.852;2023-02-01T03:46:35;9.68;;;2.95;;
21727;SDS011;11026;50.560;17.852;2023-02-01T03:49:11;6.00;;;2.60;;
21727;SDS011;11026;50.560;17.852;2023-02-01T03:51:45;6.97;;;3.00;;
21727;SDS011;11026;50.560;17.852;2023-02-01T03:54:15;7.25;;;2.70;;
21727;SDS011;11026;50.560;17.852;2023-02-01T03:56:45;10.02;;;3.20;;
21727;SDS011;11026;50.560;17.852;2023-02-01T03:59:15;6.43;;;3.40;;
21727;SDS011;11026;50.560;17.852;2023-02-01T04:01:42;11.32;;;3.63;;
21727;SDS011;11026;50.560;17.852;2023-02-01T04:04:10;7.55;;;3.13;;
21727;SDS011;11026;50.560;17.852;2023-02-01T04:06:38;7.20;;;2.72;;
21727;SDS011;11026;50.560;17.852;2023-02-01T04:09:06;8.13;;;2.90;;
21727;SDS011;11026;50.560;17.852;2023-02-01T04:11:33;10.88;;;3.30;;
21727;SDS011;11026;50.560;17.852;2023-02-01T04:14:01;11.55;;;3.35;;
21727;SDS011;11026;50.560;17.852;2023-02-01T04:16:31;22.75;;;5.78;;
21727;SDS011;11026;50.560;17.852;2023-02-01T04:19:00;25.42;;;7.57;;
21727;SDS011;11026;50.560;17.852;2023-02-01T04:21:28;36.67;;;9.82;;
21727;SDS011;11026;50.560;17.852;2023-02-01T04:23:55;42.95;;;13.45;;
21727;SDS011;11026;50.560;17.852;2023-02-01T04:26:23;13.07;;;3.88;;
21727;SDS011;11026;50.560;17.852;2023-02-01T04:28:50;7.63;;;3.05;;
21727;SDS011;11026;50.560;17.852;2023-02-01T04:31:19;10.48;;;2.55;;
21727;SDS011;11026;50.560;17.852;2023-02-01T04:33:54;15.90;;;4.90;;
21727;SDS011;11026;50.560;17.852;2023-02-01T04:36:30;17.30;;;5.03;;
21727;SDS011;11026;50.560;17.852;2023-02-01T04:41:25;13.93;;;3.60;;
21727;SDS011;11026;50.560;17.852;2023-02-01T04:43:53;12.57;;;3.40;;
21727;SDS011;11026;50.560;17.852;2023-02-01T04:46:20;15.05;;;5.28;;
21727;SDS011;11026;50.560;17.852;2023-02-01T04:48:49;14.30;;;4.85;;
21727;SDS011;11026;50.560;17.852;2023-02-01T04:51:16;14.40;;;3.67;;
21727;SDS011;11026;50.560;17.852;2023-02-01T04:53:44;8.30;;;3.13;;
21727;SDS011;11026;50.560;17.852;2023-02-01T04:56:12;10.13;;;2.78;;
21727;SDS011;11026;50.560;17.852;2023-02-01T04:58:39;11.98;;;2.80;;
21727;SDS011;11026;50.560;17.852;2023-02-01T05:01:07;9.75;;;2.83;;
21727;SDS011;11026;50.560;17.852;2023-02-01T05:03:37;7.25;;;2.20;;
21727;SDS011;11026;50.560;17.852;2023-02-01T05:06:04;8.20;;;2.78;;
21727;SDS011;11026;50.560;17.852;2023-02-01T05:08:32;11.00;;;2.67;;
21727;SDS011;11026;50.560;17.852;2023-02-01T05:11:00;8.35;;;2.80;;
21727;SDS011;11026;50.560;17.852;2023-02-01T05:13:30;7.30;;;2.35;;
21727;SDS011;11026;50.560;17.852;2023-02-01T05:16:16;9.88;;;3.00;;
21727;SDS011;11026;50.560;17.852;2023-02-01T05:18:43;9.18;;;2.50;;
21727;SDS011;11026;50.560;17.852;2023-02-01T05:21:11;5.75;;;2.50;;
21727;SDS011;11026;50.560;17.852;2023-02-01T05:23:38;9.18;;;3.38;;
21727;SDS011;11026;50.560;17.852;2023-02-01T05:26:24;10.10;;;2.97;;
21727;SDS011;11026;50.560;17.852;2023-02-01T05:28:51;8.98;;;3.00;;
21727;SDS011;11026;50.560;17.852;2023-02-01T05:31:20;6.88;;;2.55;;
21727;SDS011;11026;50.560;17.852;2023-02-01T05:33:51;9.82;;;3.10;;
21727;SDS011;11026;50.560;17.852;2023-02-01T05:36:18;9.05;;;3.00;;
21727;SDS011;11026;50.560;17.852;2023-02-01T05:38:45;11.27;;;3.40;;
21727;SDS011;11026;50.560;17.852;2023-02-01T05:41:14;5.38;;;2.28;;
21727;SDS011;11026;50.560;17.852;2023-02-01T05:43:41;11.73;;;2.70;;
21727;SDS011;11026;50.560;17.852;2023-02-01T05:46:10;10.90;;;3.90;;
21727;SDS011;11026;50.560;17.852;2023-02-01T05:48:39;7.88;;;2.50;;
21727;SDS011;11026;50.560;17.852;2023-02-01T05:51:17;10.73;;;3.33;;
21727;SDS011;11026;50.560;17.852;2023-02-01T05:53:44;9.10;;;3.10;;
21727;SDS011;11026;50.560;17.852;2023-02-01T05:56:11;11.05;;;3.10;;
21727;SDS011;11026;50.560;17.852;2023-02-01T05:58:39;8.25;;;2.75;;
21727;SDS011;11026;50.560;17.852;2023-02-01T06:01:07;9.57;;;3.20;;
21727;SDS011;11026;50.560;17.852;2023-02-01T06:03:35;10.63;;;3.38;;
21727;SDS011;11026;50.560;17.852;2023-02-01T06:06:03;9.73;;;3.20;;
21727;SDS011;11026;50.560;17.852;2023-02-01T06:08:30;9.32;;;3.05;;
21727;SDS011;11026;50.560;17.852;2023-02-01T06:10:59;6.13;;;3.03;;
21727;SDS011;11026;50.560;17.852;2023-02-01T06:13:27;6.75;;;3.22;;
21727;SDS011;11026;50.560;17.852;2023-02-01T06:15:56;14.02;;;3.67;;
21727;SDS011;11026;50.560;17.852;2023-02-01T06:18:24;11.65;;;3.65;;
21727;SDS011;11026;50.560;17.852;2023-02-01T06:20:56;8.90;;;3.70;;
21727;SDS011;11026;50.560;17.852;2023-02-01T06:23:32;10.90;;;3.90;;
21727;SDS011;11026;50.560;17.852;2023-02-01T06:26:05;7.55;;;3.55;;
21727;SDS011;11026;50.560;17.852;2023-02-01T06:31:06;7.00;;;3.47;;
21727;SDS011;11026;50.560;17.852;2023-02-01T06:33:36;9.18;;;3.80;;
21727;SDS011;11026;50.560;17.852;2023-02-01T06:36:05;8.35;;;3.60;;
21727;SDS011;11026;50.560;17.852;2023-02-01T06:38:34;10.70;;;3.70;;
21727;SDS011;11026;50.560;17.852;2023-02-01T06:41:02;12.90;;;4.05;;
21727;SDS011;11026;50.560;17.852;2023-02-01T06:43:32;8.73;;;3.92;;
21727;SDS011;11026;50.560;17.852;2023-02-01T06:46:00;8.73;;;4.00;;
21727;SDS011;11026;50.560;17.852;2023-02-01T06:48:30;9.88;;;3.75;;
21727;SDS011;11026;50.560;17.852;2023-02-01T06:50:58;8.35;;;3.33;;
21727;SDS011;11026;50.560;17.852;2023-02-01T06:53:25;12.95;;;3.67;;
21727;SDS011;11026;50.560;17.852;2023-02-01T06:55:54;7.50;;;3.13;;
21727;SDS011;11026;50.560;17.852;2023-02-01T06:58:27;5.22;;;2.70;;
21727;SDS011;11026;50.560;17.852;2023-02-01T07:00:56;7.90;;;3.20;;
21727;SDS011;11026;50.560;17.852;2023-02-01T07:03:23;7.68;;;3.00;;
21727;SDS011;11026;50.560;17.852;2023-02-01T07:05:55;11.68;;;3.63;;
21727;SDS011;11026;50.560;17.852;2023-02-01T07:08:29;7.45;;;2.80;;
21727;SDS011;11026;50.560;17.852;2023-02-01T07:11:02;7.45;;;3.20;;
21727;SDS011;11026;50.560;17.852;2023-02-01T07:13:30;7.38;;;2.95;;
21727;SDS011;11026;50.560;17.852;2023-02-01T07:15:59;8.68;;;2.70;;
21727;SDS011;11026;50.560;17.852;2023-02-01T07:18:30;10.70;;;2.97;;
21727;SDS011;11026;50.560;17.852;2023-02-01T07:20:58;8.82;;;3.30;;
21727;SDS011;11026;50.560;17.852;2023-02-01T07:23:26;8.23;;;2.75;;
21727;SDS011;11026;50.560;17.852;2023-02-01T07:25:56;6.25;;;2.78;;
21727;SDS011;11026;50.560;17.852;2023-02-01T07:31:06;7.47;;;2.92;;
21727;SDS011;11026;50.560;17.852;2023-02-01T07:33:35;6.65;;;2.90;;
21727;SDS011;11026;50.560;17.852;2023-02-01T07:36:04;10.50;;;2.92;;
21727;SDS011;11026;50.560;17.852;2023-02-01T07:38:33;6.65;;;2.83;;
21727;SDS011;11026;50.560;17.852;2023-02-01T07:41:03;6.28;;;2.80;;
21727;SDS011;11026;50.560;17.852;2023-02-01T07:43:32;5.57;;;2.50;;
21727;SDS011;11026;50.560;17.852;2023-02-01T07:46:03;7.68;;;3.22;;
21727;SDS011;11026;50.560;17.852;2023-02-01T07:48:31;5.93;;;2.75;;
21727;SDS011;11026;50.560;17.852;2023-02-01T07:51:03;7.68;;;3.95;;
21727;SDS011;11026;50.560;17.852;2023-02-01T07:53:34;6.85;;;3.35;;
21727;SDS011;11026;50.560;17.852;2023-02-01T07:56:02;8.57;;;3.47;;
21727;SDS011;11026;50.560;17.852;2023-02-01T07:58:30;6.53;;;2.75;;
21727;SDS011;11026;50.560;17.852;2023-02-01T08:00:57;13.75;;;5.10;;
21727;SDS011;11026;50.560;17.852;2023-02-01T08:03:48;7.57;;;3.20;;
21727;SDS011;11026;50.560;17.852;2023-02-01T08:06:16;8.68;;;3.20;;
21727;SDS011;11026;50.560;17.852;2023-02-01T08:08:44;8.05;;;3.38;;
21727;SDS011;11026;50.560;17.852;2023-02-01T08:11:12;8.93;;;3.70;;
21727;SDS011;11026;50.560;17.852;2023-02-01T08:13:40;9.27;;;3.20;;
21727;SDS011;11026;50.560;17.852;2023-02-01T08:16:11;6.18;;;2.80;;
21727;SDS011;11026;50.560;17.852;2023-02-01T08:18:39;8.10;;;3.55;;
21727;SDS011;11026;50.560;17.852;2023-02-01T08:21:08;9.80;;;3.25;;
21727;SDS011;11026;50.560;17.852;2023-02-01T08:23:40;7.78;;;3.22;;
21727;SDS011;11026;50.560;17.852;2023-02-01T08:28:44;9.00;;;4.28;;
21727;SDS011;11026;50.560;17.852;2023-02-01T08:31:16;8.88;;;3.83;;
21727;SDS011;11026;50.560;17.852;2023-02-01T08:33:48;5.57;;;3.22;;
21727;SDS011;11026;50.560;17.852;2023-02-01T08:36:18;6.32;;;3.25;;
21727;SDS011;11026;50.560;17.852;2023-02-01T08:38:52;9.18;;;3.80;;
21727;SDS011;11026;50.560;17.852;2023-02-01T08:41:20;7.63;;;3.13;;
21727;SDS011;11026;50.560;17.852;2023-02-01T08:43:51;9.25;;;3.40;;
21727;SDS011;11026;50.560;17.852;2023-02-01T08:46:19;8.20;;;3.67;;
21727;SDS011;11026;50.560;17.852;2023-02-01T08:48:47;12.73;;;3.40;;
21727;SDS011;11026;50.560;17.852;2023-02-01T08:51:16;9.20;;;3.80;;
21727;SDS011;11026;50.560;17.852;2023-02-01T08:53:45;6.47;;;3.67;;
21727;SDS011;11026;50.560;17.852;2023-02-01T08:56:14;10.73;;;4.65;;
21727;SDS011;11026;50.560;17.852;2023-02-01T08:58:43;8.32;;;3.67;;
21727;SDS011;11026;50.560;17.852;2023-02-01T09:01:16;11.70;;;3.75;;
21727;SDS011;11026;50.560;17.852;2023-02-01T09:03:44;7.13;;;3.22;;
21727;SDS011;11026;50.560;17.852;2023-02-01T09:06:19;10.07;;;3.63;;
21727;SDS011;11026;50.560;17.852;2023-02-01T09:08:48;7.47;;;3.40;;
21727;SDS011;11026;50.560;17.852;2023-02-01T09:11:17;9.38;;;3.85;;
21727;SDS011;11026;50.560;17.852;2023-02-01T09:13:48;9.57;;;3.88;;
21727;SDS011;11026;50.560;17.852;2023-02-01T09:16:15;10.80;;;3.83;;
21727;SDS011;11026;50.560;17.852;2023-02-01T09:18:44;9.07;;;3.95;;
21727;SDS011;11026;50.560;17.852;2023-02-01T09:21:32;7.10;;;3.35;;
21727;SDS011;11026;50.560;17.852;2023-02-01T09:24:01;7.05;;;3.53;;
21727;SDS011;11026;50.560;17.852;2023-02-01T09:26:28;7.57;;;3.13;;
21727;SDS011;11026;50.560;17.852;2023-02-01T09:28:58;9.98;;;3.38;;
21727;SDS011;11026;50.560;17.852;2023-02-01T09:31:27;9.77;;;4.13;;
21727;SDS011;11026;50.560;17.852;2023-02-01T09:33:54;8.65;;;4.55;;
21727;SDS011;11026;50.560;17.852;2023-02-01T09:36:22;7.15;;;3.30;;
21727;SDS011;11026;50.560;17.852;2023-02-01T09:38:50;6.65;;;3.63;;
21727;SDS011;11026;50.560;17.852;2023-02-01T09:46:44;6.75;;;3.22;;
21727;SDS011;11026;50.560;17.852;2023-02-01T09:49:19;8.55;;;3.67;;
21727;SDS011;11026;50.560;17.852;2023-02-01T09:51:52;10.50;;;3.90;;
21727;SDS011;11026;50.560;17.852;2023-02-01T09:54:24;11.45;;;3.63;;
21727;SDS011;11026;50.560;17.852;2023-02-01T09:59:47;6.53;;;2.60;;
21727;SDS011;11026;50.560;17.852;2023-02-01T10:02:24;8.98;;;2.78;;
21727;SDS011;11026;50.560;17.852;2023-02-01T10:04:55;4.13;;;2.60;;
21727;SDS011;11026;50.560;17.852;2023-02-01T10:10:13;3.67;;;2.30;;
21727;SDS011;11026;50.560;17.852;2023-02-01T10:24:32;4.13;;;2.53;;
21727;SDS011;11026;50.560;17.852;2023-02-01T10:27:20;5.28;;;2.80;;
21727;SDS011;11026;50.560;17.852;2023-02-01T10:29:51;4.70;;;3.33;;
21727;SDS011;11026;50.560;17.852;2023-02-01T10:32:32;6.07;;;2.60;;
21727;SDS011;11026;50.560;17.852;2023-02-01T10:35:05;3.35;;;2.30;;
21727;SDS011;11026;50.560;17.852;2023-02-01T10:40:24;6.13;;;2.60;;
21727;SDS011;11026;50.560;17.852;2023-02-01T10:43:01;8.32;;;3.80;;
21727;SDS011;11026;50.560;17.852;2023-02-01T10:45:31;7.40;;;3.42;;
21727;SDS011;11026;50.560;17.852;2023-02-01T10:48:06;3.70;;;2.30;;
21727;SDS011;11026;50.560;17.852;2023-02-01T10:53:24;4.55;;;2.25;;
21727;SDS011;11026;50.560;17.852;2023-02-01T10:56:04;9.40;;;4.88;;
21727;SDS011;11026;50.560;17.852;2023-02-01T10:58:34;5.75;;;3.13;;
21727;SDS011;11026;50.560;17.852;2023-02-01T11:07:07;6.30;;;3.05;;
21727;SDS011;11026;50.560;17.852;2023-02-01T11:09:40;15.88;;;6.40;;
21727;SDS011;11026;50.560;17.852;2023-02-01T11:12:52;9.68;;;3.20;;
21727;SDS011;11026;50.560;17.852;2023-02-01T11:17:49;6.78;;;3.60;;
21727;SDS011;11026;50.560;17.852;2023-02-01T11:23:05;6.72;;;3.80;;
21727;SDS011;11026;50.560;17.852;2023-02-01T11:25:32;6.30;;;4.32;;
21727;SDS011;11026;50.560;17.852;2023-02-01T11:28:02;8.43;;;3.80;;
21727;SDS011;11026;50.560;17.852;2023-02-01T11:30:40;9.52;;;3.83;;
21727;SDS011;11026;50.560;17.852;2023-02-01T11:33:18;6.97;;;3.88;;
21727;SDS011;11026;50.560;17.852;2023-02-01T11:35:47;8.82;;;5.32;;
21727;SDS011;11026;50.560;17.852;2023-02-01T11:38:28;11.57;;;5.70;;
21727;SDS011;11026;50.560;17.852;2023-02-01T11:41:12;11.32;;;5.80;;
21727;SDS011;11026;50.560;17.852;2023-02-01T11:43:54;6.65;;;3.20;;
21727;SDS011;11026;50.560;17.852;2023-02-01T11:46:31;6.82;;;3.75;;
21727;SDS011;11026;50.560;17.852;2023-02-01T11:49:20;6.63;;;3.97;;
21727;SDS011;11026;50.560;17.852;2023-02-01T11:52:02;8.95;;;5.32;;
21727;SDS011;11026;50.560;17.852;2023-02-01T12:00:20;3.70;;;2.70;;
21727;SDS011;11026;50.560;17.852;2023-02-01T12:20:17;2.05;;;1.65;;
21727;SDS011;11026;50.560;17.852;2023-02-01T12:37:09;3.92;;;2.47;;
21727;SDS011;11026;50.560;17.852;2023-02-01T12:43:14;5.28;;;3.20;;
21727;SDS011;11026;50.560;17.852;2023-02-01T12:51:23;4.45;;;3.90;;
21727;SDS011;11026;50.560;17.852;2023-02-01T12:54:42;5.95;;;3.38;;
21727;SDS011;11026;50.560;17.852;2023-02-01T12:57:11;6.95;;;3.33;;
21727;SDS011;11026;50.560;17.852;2023-02-01T12:59:43;4.78;;;3.20;;
21727;SDS011;11026;50.560;17.852;2023-02-01T13:02:21;5.65;;;3.45;;
21727;SDS011;11026;50.560;17.852;2023-02-01T13:05:16;4.97;;;3.50;;
21727;SDS011;11026;50.560;17.852;2023-02-01T13:08:07;4.97;;;3.13;;
21727;SDS011;11026;50.560;17.852;2023-02-01T13:10:47;7.10;;;4.00;;
21727;SDS011;11026;50.560;17.852;2023-02-01T13:13:43;5.47;;;3.95;;
21727;SDS011;11026;50.560;17.852;2023-02-01T13:16:32;7.13;;;4.22;;
21727;SDS011;11026;50.560;17.852;2023-02-01T13:19:16;6.55;;;4.40;;
21727;SDS011;11026;50.560;17.852;2023-02-01T13:21:57;5.45;;;4.00;;
21727;SDS011;11026;50.560;17.852;2023-02-01T13:24:52;5.60;;;4.05;;
21727;SDS011;11026;50.560;17.852;2023-02-01T13:27:26;6.22;;;3.83;;
21727;SDS011;11026;50.560;17.852;2023-02-01T13:35:48;3.38;;;2.60;;
21727;SDS011;11026;50.560;17.852;2023-02-01T13:38:36;4.93;;;2.35;;
21727;SDS011;11026;50.560;17.852;2023-02-01T13:43:51;2.95;;;2.40;;
21727;SDS011;11026;50.560;17.852;2023-02-01T13:46:22;5.88;;;3.65;;
21727;SDS011;11026;50.560;17.852;2023-02-01T13:48:54;3.65;;;2.45;;
21727;SDS011;11026;50.560;17.852;2023-02-01T13:57:04;4.68;;;3.35;;
21727;SDS011;11026;50.560;17.852;2023-02-01T14:05:54;14.82;;;5.72;;
21727;SDS011;11026;50.560;17.852;2023-02-01T14:13:27;4.22;;;2.42;;
21727;SDS011;11026;50.560;17.852;2023-02-01T14:18:56;4.75;;;2.75;;
21727;SDS011;11026;50.560;17.852;2023-02-01T14:21:32;4.70;;;2.97;;
21727;SDS011;11026;50.560;17.852;2023-02-01T14:26:44;3.50;;;2.40;;
21727;SDS011;11026;50.560;17.852;2023-02-01T14:32:17;4.60;;;2.35;;
21727;SDS011;11026;50.560;17.852;2023-02-01T14:39:53;4.88;;;3.75;;
21727;SDS011;11026;50.560;17.852;2023-02-01T14:47:51;4.15;;;2.80;;
21727;SDS011;11026;50.560;17.852;2023-02-01T15:01:32;5.32;;;2.88;;
21727;SDS011;11026;50.560;17.852;2023-02-01T15:04:09;8.25;;;3.08;;
21727;SDS011;11026;50.560;17.852;2023-02-01T15:09:35;49.33;;;25.17;;
21727;SDS011;11026;50.560;17.852;2023-02-01T15:14:40;9.55;;;4.15;;
21727;SDS011;11026;50.560;17.852;2023-02-01T15:17:22;20.45;;;10.40;;
21727;SDS011;11026;50.560;17.852;2023-02-01T15:19:58;19.30;;;12.50;;
21727;SDS011;11026;50.560;17.852;2023-02-01T15:25:27;8.63;;;4.53;;
21727;SDS011;11026;50.560;17.852;2023-02-01T15:27:56;4.30;;;2.35;;
21727;SDS011;11026;50.560;17.852;2023-02-01T15:30:25;5.55;;;2.60;;
21727;SDS011;11026;50.560;17.852;2023-02-01T15:33:07;5.20;;;2.47;;
21727;SDS011;11026;50.560;17.852;2023-02-01T15:35:39;7.53;;;2.55;;
21727;SDS011;11026;50.560;17.852;2023-02-01T15:44:16;10.25;;;4.25;;
21727;SDS011;11026;50.560;17.852;2023-02-01T15:46:48;5.25;;;3.30;;
21727;SDS011;11026;50.560;17.852;2023-02-01T15:51:52;13.32;;;5.25;;
21727;SDS011;11026;50.560;17.852;2023-02-01T15:54:32;7.47;;;3.38;;
21727;SDS011;11026;50.560;17.852;2023-02-01T15:57:09;7.78;;;3.83;;
21727;SDS011;11026;50.560;17.852;2023-02-01T15:59:41;6.55;;;3.22;;
21727;SDS011;11026;50.560;17.852;2023-02-01T16:10:44;15.25;;;7.22;;
21727;SDS011;11026;50.560;17.852;2023-02-01T16:13:13;13.23;;;8.30;;
21727;SDS011;11026;50.560;17.852;2023-02-01T16:15:42;18.08;;;10.82;;
21727;SDS011;11026;50.560;17.852;2023-02-01T16:18:11;14.25;;;8.05;;
21727;SDS011;11026;50.560;17.852;2023-02-01T16:20:45;10.95;;;5.55;;
21727;SDS011;11026;50.560;17.852;2023-02-01T16:23:14;14.52;;;7.53;;
21727;SDS011;11026;50.560;17.852;2023-02-01T16:25:42;13.00;;;7.45;;
21727;SDS011;11026;50.560;17.852;2023-02-01T16:28:09;21.15;;;10.45;;
21727;SDS011;11026;50.560;17.852;2023-02-01T16:30:37;11.02;;;6.28;;
21727;SDS011;11026;50.560;17.852;2023-02-01T16:33:06;11.38;;;4.88;;
21727;SDS011;11026;50.560;17.852;2023-02-01T16:35:42;7.28;;;5.03;;
21727;SDS011;11026;50.560;17.852;2023-02-01T16:38:11;7.97;;;5.03;;
21727;SDS011;11026;50.560;17.852;2023-02-01T16:40:44;9.75;;;5.20;;
21727;SDS011;11026;50.560;17.852;2023-02-01T16:43:17;11.00;;;6.00;;
21727;SDS011;11026;50.560;17.852;2023-02-01T16:45:46;8.07;;;5.28;;
21727;SDS011;11026;50.560;17.852;2023-02-01T16:48:25;7.53;;;5.18;;
21727;SDS011;11026;50.560;17.852;2023-02-01T16:50:59;9.30;;;5.47;;
21727;SDS011;11026;50.560;17.852;2023-02-01T16:53:30;8.90;;;5.13;;
21727;SDS011;11026;50.560;17.852;2023-02-01T16:56:17;11.25;;;6.20;;
21727;SDS011;11026;50.560;17.852;2023-02-01T16:58:55;9.52;;;6.18;;
21727;SDS011;11026;50.560;17.852;2023-02-01T17:01:25;11.13;;;6.80;;
21727;SDS011;11026;50.560;17.852;2023-02-01T17:03:55;10.80;;;6.68;;
21727;SDS011;11026;50.560;17.852;2023-02-01T17:06:23;12.73;;;8.32;;
21727;SDS011;11026;50.560;17.852;2023-02-01T17:08:54;10.13;;;6.18;;
21727;SDS011;11026;50.560;17.852;2023-02-01T17:11:26;10.70;;;7.15;;
21727;SDS011;11026;50.560;17.852;2023-02-01T17:13:55;11.30;;;6.40;;
21727;SDS011;11026;50.560;17.852;2023-02-01T17:16:26;11.50;;;6.80;;
21727;SDS011;11026;50.560;17.852;2023-02-01T17:19:03;14.63;;;8.65;;
21727;SDS011;11026;50.560;17.852;2023-02-01T17:21:37;16.77;;;9.27;;
21727;SDS011;11026;50.560;17.852;2023-02-01T17:24:15;16.85;;;10.45;;
21727;SDS011;11026;50.560;17.852;2023-02-01T17:26:45;14.90;;;8.70;;
21727;SDS011;11026;50.560;17.852;2023-02-01T17:29:13;14.85;;;8.65;;
21727;SDS011;11026;50.560;17.852;2023-02-01T17:31:54;15.77;;;8.48;;
21727;SDS011;11026;50.560;17.852;2023-02-01T17:34:24;12.10;;;7.43;;
21727;SDS011;11026;50.560;17.852;2023-02-01T17:36:54;15.95;;;9.27;;
21727;SDS011;11026;50.560;17.852;2023-02-01T17:39:25;16.05;;;9.32;;
21727;SDS011;11026;50.560;17.852;2023-02-01T17:42:11;15.13;;;7.63;;
21727;SDS011;11026;50.560;17.852;2023-02-01T17:44:42;27.25;;;11.73;;
21727;SDS011;11026;50.560;17.852;2023-02-01T17:47:11;18.35;;;8.82;;
21727;SDS011;11026;50.560;17.852;2023-02-01T17:49:39;19.25;;;9.25;;
21727;SDS011;11026;50.560;17.852;2023-02-01T17:52:14;27.17;;;12.68;;
21727;SDS011;11026;50.560;17.852;2023-02-01T17:54:45;30.70;;;14.82;;
21727;SDS011;11026;50.560;17.852;2023-02-01T17:57:16;24.67;;;11.95;;
21727;SDS011;11026;50.560;17.852;2023-02-01T17:59:45;14.02;;;6.18;;
21727;SDS011;11026;50.560;17.852;2023-02-01T18:02:22;16.45;;;8.40;;
21727;SDS011;11026;50.560;17.852;2023-02-01T18:04:51;7.43;;;4.63;;
21727;SDS011;11026;50.560;17.852;2023-02-01T18:07:18;11.05;;;5.40;;
21727;SDS011;11026;50.560;17.852;2023-02-01T18:09:46;9.73;;;4.55;;
21727;SDS011;11026;50.560;17.852;2023-02-01T18:12:19;8.95;;;4.70;;
21727;SDS011;11026;50.560;17.852;2023-02-01T18:14:49;9.85;;;4.63;;
21727;SDS011;11026;50.560;17.852;2023-02-01T18:17:17;9.02;;;4.65;;
21727;SDS011;11026;50.560;17.852;2023-02-01T18:19:45;9.90;;;4.28;;
21727;SDS011;11026;50.560;17.852;2023-02-01T18:22:16;10.32;;;5.07;;
21727;SDS011;11026;50.560;17.852;2023-02-01T18:24:48;11.82;;;5.90;;
21727;SDS011;11026;50.560;17.852;2023-02-01T18:27:17;14.38;;;7.22;;
21727;SDS011;11026;50.560;17.852;2023-02-01T18:29:45;15.63;;;6.95;;
21727;SDS011;11026;50.560;17.852;2023-02-01T18:32:17;10.18;;;5.63;;
21727;SDS011;11026;50.560;17.852;2023-02-01T18:34:46;14.93;;;5.82;;
21727;SDS011;11026;50.560;17.852;2023-02-01T18:37:13;12.00;;;6.72;;
21727;SDS011;11026;50.560;17.852;2023-02-01T18:39:42;17.77;;;6.00;;
21727;SDS011;11026;50.560;17.852;2023-02-01T18:42:10;15.63;;;7.15;;
21727;SDS011;11026;50.560;17.852;2023-02-01T18:44:38;18.20;;;6.53;;
21727;SDS011;11026;50.560;17.852;2023-02-01T18:47:07;11.45;;;6.50;;
21727;SDS011;11026;50.560;17.852;2023-02-01T18:49:36;13.27;;;5.55;;
21727;SDS011;11026;50.560;17.852;2023-02-01T18:52:05;14.55;;;5.18;;